<?xml version='1.0' encoding='UTF-8'?>
<gpx version="1.1" creator="https://www.komoot.de" xmlns="http://www.topografix.com/GPX/1/1" xmlns:xsi="http://www.w3.org/2001/XMLSchema-instance" xsi:schemaLocation="http://www.topografix.com/GPX/1/1 http://www.topografix.com/GPX/1/1/gpx.xsd">
  <metadata>
    <name>Rondwandeling rond de Monte Camba</name>
    <author>
      <link href="https://www.komoot.de">
        <text>komoot</text>
        <type>text/html</type>
      </link>
    </author>
  </metadata>
  <trk>
    <name>Rondwandeling rond de Monte Camba</name>
    <trkseg>
      <trkpt lat="43.234145" lon="-4.746766">
        <ele>1037.932004</ele>
        <time>2025-09-03T09:55:08.618Z</time>
      </trkpt>
      <trkpt lat="43.233878" lon="-4.746600">
        <ele>1037.932004</ele>
        <time>2025-09-03T09:55:38.780Z</time>
      </trkpt>
      <trkpt lat="43.233837" lon="-4.746757">
        <ele>1037.932004</ele>
        <time>2025-09-03T09:55:51.260Z</time>
      </trkpt>
      <trkpt lat="43.233564" lon="-4.747253">
        <ele>1037.932004</ele>
        <time>2025-09-03T09:56:37.717Z</time>
      </trkpt>
      <trkpt lat="43.233446" lon="-4.747538">
        <ele>1038.188939</ele>
        <time>2025-09-03T09:57:02.123Z</time>
      </trkpt>
      <trkpt lat="43.233405" lon="-4.747751">
        <ele>1038.388141</ele>
        <time>2025-09-03T09:57:18.357Z</time>
      </trkpt>
      <trkpt lat="43.233375" lon="-4.747924">
        <ele>1038.548937</ele>
        <time>2025-09-03T09:57:31.317Z</time>
      </trkpt>
      <trkpt lat="43.233405" lon="-4.748074">
        <ele>1038.689584</ele>
        <time>2025-09-03T09:57:43.043Z</time>
      </trkpt>
      <trkpt lat="43.233403" lon="-4.748219">
        <ele>1038.820716</ele>
        <time>2025-09-03T09:57:54.216Z</time>
      </trkpt>
      <trkpt lat="43.233320" lon="-4.748542">
        <ele>1039.130404</ele>
        <time>2025-09-03T09:58:20.236Z</time>
      </trkpt>
      <trkpt lat="43.233329" lon="-4.748800">
        <ele>1039.363954</ele>
        <time>2025-09-03T09:58:40.065Z</time>
      </trkpt>
      <trkpt lat="43.233337" lon="-4.748932">
        <ele>1039.483721</ele>
        <time>2025-09-03T09:58:50.051Z</time>
      </trkpt>
      <trkpt lat="43.233274" lon="-4.749254">
        <ele>1039.785188</ele>
        <time>2025-09-03T09:59:16.469Z</time>
      </trkpt>
      <trkpt lat="43.233271" lon="-4.749369">
        <ele>1039.889237</ele>
        <time>2025-09-03T09:59:25.617Z</time>
      </trkpt>
      <trkpt lat="43.233307" lon="-4.749527">
        <ele>1040.038923</ele>
        <time>2025-09-03T09:59:39.231Z</time>
      </trkpt>
      <trkpt lat="43.233340" lon="-4.749631">
        <ele>1040.141491</ele>
        <time>2025-09-03T09:59:48.790Z</time>
      </trkpt>
      <trkpt lat="43.233360" lon="-4.749845">
        <ele>1040.542088</ele>
        <time>2025-09-03T10:00:06.399Z</time>
      </trkpt>
      <trkpt lat="43.233561" lon="-4.750296">
        <ele>1041.590138</ele>
        <time>2025-09-03T10:00:49.470Z</time>
      </trkpt>
      <trkpt lat="43.233741" lon="-4.750457">
        <ele>1042.174713</ele>
        <time>2025-09-03T10:01:12.831Z</time>
      </trkpt>
      <trkpt lat="43.233882" lon="-4.750649">
        <ele>1042.715127</ele>
        <time>2025-09-03T10:01:34.400Z</time>
      </trkpt>
      <trkpt lat="43.233969" lon="-4.750840">
        <ele>1043.161662</ele>
        <time>2025-09-03T10:01:52.184Z</time>
      </trkpt>
      <trkpt lat="43.234063" lon="-4.751161">
        <ele>1043.847469</ele>
        <time>2025-09-03T10:02:20.479Z</time>
      </trkpt>
      <trkpt lat="43.233855" lon="-4.751621">
        <ele>1044.920694</ele>
        <time>2025-09-03T10:03:05.279Z</time>
      </trkpt>
      <trkpt lat="43.233803" lon="-4.751954">
        <ele>1043.843148</ele>
        <time>2025-09-03T10:03:32.538Z</time>
      </trkpt>
      <trkpt lat="43.233795" lon="-4.752065">
        <ele>1043.343496</ele>
        <time>2025-09-03T10:03:40.801Z</time>
      </trkpt>
      <trkpt lat="43.233793" lon="-4.752085">
        <ele>1043.253066</ele>
        <time>2025-09-03T10:03:42.263Z</time>
      </trkpt>
      <trkpt lat="43.233822" lon="-4.752156">
        <ele>1042.888450</ele>
        <time>2025-09-03T10:03:48.285Z</time>
      </trkpt>
      <trkpt lat="43.234062" lon="-4.752288">
        <ele>1041.298773</ele>
        <time>2025-09-03T10:04:15.119Z</time>
      </trkpt>
      <trkpt lat="43.234225" lon="-4.752441">
        <ele>1040.084646</ele>
        <time>2025-09-03T10:04:36.491Z</time>
      </trkpt>
      <trkpt lat="43.234264" lon="-4.752529">
        <ele>1039.623250</ele>
        <time>2025-09-03T10:04:44.796Z</time>
      </trkpt>
      <trkpt lat="43.234277" lon="-4.752732">
        <ele>1038.710410</ele>
        <time>2025-09-03T10:05:01.611Z</time>
      </trkpt>
      <trkpt lat="43.234240" lon="-4.752948">
        <ele>1037.716460</ele>
        <time>2025-09-03T10:05:20.533Z</time>
      </trkpt>
      <trkpt lat="43.234370" lon="-4.753570">
        <ele>1034.817848</ele>
        <time>2025-09-03T10:06:19.748Z</time>
      </trkpt>
      <trkpt lat="43.234380" lon="-4.754255">
        <ele>1029.011504</ele>
        <time>2025-09-03T10:07:23.593Z</time>
      </trkpt>
      <trkpt lat="43.234381" lon="-4.754313">
        <ele>1028.435534</ele>
        <time>2025-09-03T10:07:28.961Z</time>
      </trkpt>
      <trkpt lat="43.234375" lon="-4.754512">
        <ele>1026.458224</ele>
        <time>2025-09-03T10:07:47.253Z</time>
      </trkpt>
      <trkpt lat="43.234356" lon="-4.754876">
        <ele>1022.835266</ele>
        <time>2025-09-03T10:08:28.974Z</time>
      </trkpt>
      <trkpt lat="43.234395" lon="-4.754922">
        <ele>1022.134568</ele>
        <time>2025-09-03T10:08:37.017Z</time>
      </trkpt>
      <trkpt lat="43.234503" lon="-4.754939">
        <ele>1020.653255</ele>
        <time>2025-09-03T10:08:54.300Z</time>
      </trkpt>
      <trkpt lat="43.234878" lon="-4.754722">
        <ele>1015.107742</ele>
        <time>2025-09-03T10:09:58.712Z</time>
      </trkpt>
      <trkpt lat="43.235003" lon="-4.754736">
        <ele>1013.398761</ele>
        <time>2025-09-03T10:10:18.572Z</time>
      </trkpt>
      <trkpt lat="43.235112" lon="-4.754689">
        <ele>1011.841901</ele>
        <time>2025-09-03T10:10:36.413Z</time>
      </trkpt>
      <trkpt lat="43.235281" lon="-4.754716">
        <ele>1009.523466</ele>
        <time>2025-09-03T10:11:02.524Z</time>
      </trkpt>
      <trkpt lat="43.235324" lon="-4.754707">
        <ele>1008.694723</ele>
        <time>2025-09-03T10:11:09.144Z</time>
      </trkpt>
      <trkpt lat="43.235357" lon="-4.754701">
        <ele>1008.049691</ele>
        <time>2025-09-03T10:11:14.265Z</time>
      </trkpt>
      <trkpt lat="43.235091" lon="-4.754963">
        <ele>1001.705601</ele>
        <time>2025-09-03T10:12:05.211Z</time>
      </trkpt>
      <trkpt lat="43.235085" lon="-4.754997">
        <ele>1001.211736</ele>
        <time>2025-09-03T10:12:09.337Z</time>
      </trkpt>
      <trkpt lat="43.235674" lon="-4.755022">
        <ele>989.793131</ele>
        <time>2025-09-03T10:13:56.660Z</time>
      </trkpt>
      <trkpt lat="43.236273" lon="-4.755134">
        <ele>978.079015</ele>
        <time>2025-09-03T10:15:59.834Z</time>
      </trkpt>
      <trkpt lat="43.236381" lon="-4.755096">
        <ele>975.918620</ele>
        <time>2025-09-03T10:16:21.881Z</time>
      </trkpt>
      <trkpt lat="43.236626" lon="-4.755118">
        <ele>972.065187</ele>
        <time>2025-09-03T10:17:09.271Z</time>
      </trkpt>
      <trkpt lat="43.236751" lon="-4.755279">
        <ele>969.607517</ele>
        <time>2025-09-03T10:17:40.505Z</time>
      </trkpt>
      <trkpt lat="43.237043" lon="-4.755489">
        <ele>964.881093</ele>
        <time>2025-09-03T10:18:36.499Z</time>
      </trkpt>
      <trkpt lat="43.237204" lon="-4.755739">
        <ele>961.395756</ele>
        <time>2025-09-03T10:19:16.031Z</time>
      </trkpt>
      <trkpt lat="43.237428" lon="-4.755962">
        <ele>957.428364</ele>
        <time>2025-09-03T10:19:59.371Z</time>
      </trkpt>
      <trkpt lat="43.237665" lon="-4.756281">
        <ele>952.669268</ele>
        <time>2025-09-03T10:20:47.719Z</time>
      </trkpt>
      <trkpt lat="43.237735" lon="-4.756342">
        <ele>951.480465</ele>
        <time>2025-09-03T10:20:59.356Z</time>
      </trkpt>
      <trkpt lat="43.238043" lon="-4.756483">
        <ele>947.547370</ele>
        <time>2025-09-03T10:21:45.023Z</time>
      </trkpt>
      <trkpt lat="43.238242" lon="-4.756506">
        <ele>945.705599</ele>
        <time>2025-09-03T10:22:13.074Z</time>
      </trkpt>
      <trkpt lat="43.238423" lon="-4.756603">
        <ele>943.913618</ele>
        <time>2025-09-03T10:22:40.932Z</time>
      </trkpt>
      <trkpt lat="43.238678" lon="-4.756665">
        <ele>941.525274</ele>
        <time>2025-09-03T10:23:19.068Z</time>
      </trkpt>
      <trkpt lat="43.238858" lon="-4.756858">
        <ele>939.418811</ele>
        <time>2025-09-03T10:23:53.557Z</time>
      </trkpt>
      <trkpt lat="43.239159" lon="-4.756918">
        <ele>936.613723</ele>
        <time>2025-09-03T10:24:39.595Z</time>
      </trkpt>
      <trkpt lat="43.239296" lon="-4.757030">
        <ele>935.143139</ele>
        <time>2025-09-03T10:25:03.327Z</time>
      </trkpt>
      <trkpt lat="43.239407" lon="-4.757272">
        <ele>933.221814</ele>
        <time>2025-09-03T10:25:34.364Z</time>
      </trkpt>
      <trkpt lat="43.239584" lon="-4.757342">
        <ele>931.220229</ele>
        <time>2025-09-03T10:26:01.936Z</time>
      </trkpt>
      <trkpt lat="43.239735" lon="-4.757474">
        <ele>928.891926</ele>
        <time>2025-09-03T10:26:29.084Z</time>
      </trkpt>
      <trkpt lat="43.239950" lon="-4.757479">
        <ele>926.095265</ele>
        <time>2025-09-03T10:27:01.912Z</time>
      </trkpt>
      <trkpt lat="43.240079" lon="-4.757407">
        <ele>924.284125</ele>
        <time>2025-09-03T10:27:23.427Z</time>
      </trkpt>
      <trkpt lat="43.240178" lon="-4.757385">
        <ele>922.979782</ele>
        <time>2025-09-03T10:27:39.246Z</time>
      </trkpt>
      <trkpt lat="43.240212" lon="-4.757368">
        <ele>922.509162</ele>
        <time>2025-09-03T10:27:44.858Z</time>
      </trkpt>
      <trkpt lat="43.240276" lon="-4.757224">
        <ele>920.910950</ele>
        <time>2025-09-03T10:28:04.386Z</time>
      </trkpt>
      <trkpt lat="43.240511" lon="-4.757141">
        <ele>917.755027</ele>
        <time>2025-09-03T10:28:43.170Z</time>
      </trkpt>
      <trkpt lat="43.240555" lon="-4.757151">
        <ele>917.174978</ele>
        <time>2025-09-03T10:28:50.358Z</time>
      </trkpt>
      <trkpt lat="43.240685" lon="-4.757276">
        <ele>915.110690</ele>
        <time>2025-09-03T10:29:15.514Z</time>
      </trkpt>
      <trkpt lat="43.240790" lon="-4.757314">
        <ele>913.698412</ele>
        <time>2025-09-03T10:29:32.754Z</time>
      </trkpt>
      <trkpt lat="43.240906" lon="-4.757301">
        <ele>912.184713</ele>
        <time>2025-09-03T10:29:51.210Z</time>
      </trkpt>
      <trkpt lat="43.240876" lon="-4.757365">
        <ele>911.463658</ele>
        <time>2025-09-03T10:29:59.984Z</time>
      </trkpt>
      <trkpt lat="43.240761" lon="-4.757426">
        <ele>909.860205</ele>
        <time>2025-09-03T10:30:19.593Z</time>
      </trkpt>
      <trkpt lat="43.240852" lon="-4.757485">
        <ele>908.586096</ele>
        <time>2025-09-03T10:30:35.786Z</time>
      </trkpt>
      <trkpt lat="43.240909" lon="-4.757498">
        <ele>907.917093</ele>
        <time>2025-09-03T10:30:44.976Z</time>
      </trkpt>
      <trkpt lat="43.241104" lon="-4.757391">
        <ele>905.485655</ele>
        <time>2025-09-03T10:31:18.821Z</time>
      </trkpt>
      <trkpt lat="43.241305" lon="-4.757388">
        <ele>903.158304</ele>
        <time>2025-09-03T10:31:51.169Z</time>
      </trkpt>
      <trkpt lat="43.241716" lon="-4.757606">
        <ele>898.056798</ele>
        <time>2025-09-03T10:33:00.782Z</time>
      </trkpt>
      <trkpt lat="43.242188" lon="-4.757638">
        <ele>892.585238</ele>
        <time>2025-09-03T10:34:11.406Z</time>
      </trkpt>
      <trkpt lat="43.242317" lon="-4.757584">
        <ele>891.023754</ele>
        <time>2025-09-03T10:34:30.703Z</time>
      </trkpt>
      <trkpt lat="43.242624" lon="-4.757772">
        <ele>887.093518</ele>
        <time>2025-09-03T10:35:18.546Z</time>
      </trkpt>
      <trkpt lat="43.242681" lon="-4.757768">
        <ele>886.405082</ele>
        <time>2025-09-03T10:35:26.818Z</time>
      </trkpt>
      <trkpt lat="43.242719" lon="-4.757713">
        <ele>885.739018</ele>
        <time>2025-09-03T10:35:34.869Z</time>
      </trkpt>
      <trkpt lat="43.242913" lon="-4.757663">
        <ele>883.358093</ele>
        <time>2025-09-03T10:36:03.710Z</time>
      </trkpt>
      <trkpt lat="43.243067" lon="-4.757675">
        <ele>881.497545</ele>
        <time>2025-09-03T10:36:26.752Z</time>
      </trkpt>
      <trkpt lat="43.243187" lon="-4.757772">
        <ele>879.817804</ele>
        <time>2025-09-03T10:36:47.558Z</time>
      </trkpt>
      <trkpt lat="43.243406" lon="-4.757835">
        <ele>877.118835</ele>
        <time>2025-09-03T10:37:21.667Z</time>
      </trkpt>
      <trkpt lat="43.243537" lon="-4.757998">
        <ele>874.986218</ele>
        <time>2025-09-03T10:37:49.097Z</time>
      </trkpt>
      <trkpt lat="43.243994" lon="-4.758066">
        <ele>869.441568</ele>
        <time>2025-09-03T10:39:02.619Z</time>
      </trkpt>
      <trkpt lat="43.244257" lon="-4.758137">
        <ele>866.184323</ele>
        <time>2025-09-03T10:39:46.204Z</time>
      </trkpt>
      <trkpt lat="43.244407" lon="-4.758222">
        <ele>863.887663</ele>
        <time>2025-09-03T10:40:12.916Z</time>
      </trkpt>
      <trkpt lat="43.244844" lon="-4.758246">
        <ele>857.697973</ele>
        <time>2025-09-03T10:41:26.091Z</time>
      </trkpt>
      <trkpt lat="43.245167" lon="-4.758411">
        <ele>852.820413</ele>
        <time>2025-09-03T10:42:22.272Z</time>
      </trkpt>
      <trkpt lat="43.245249" lon="-4.758379">
        <ele>851.613911</ele>
        <time>2025-09-03T10:42:35.829Z</time>
      </trkpt>
      <trkpt lat="43.245318" lon="-4.758394">
        <ele>850.625205</ele>
        <time>2025-09-03T10:42:47.059Z</time>
      </trkpt>
      <trkpt lat="43.245385" lon="-4.758453">
        <ele>849.498659</ele>
        <time>2025-09-03T10:42:59.750Z</time>
      </trkpt>
      <trkpt lat="43.245523" lon="-4.758705">
        <ele>846.248474</ele>
        <time>2025-09-03T10:43:35.735Z</time>
      </trkpt>
      <trkpt lat="43.245669" lon="-4.758905">
        <ele>843.329440</ele>
        <time>2025-09-03T10:44:07.561Z</time>
      </trkpt>
      <trkpt lat="43.245896" lon="-4.759115">
        <ele>840.410195</ele>
        <time>2025-09-03T10:44:49.114Z</time>
      </trkpt>
      <trkpt lat="43.246366" lon="-4.759661">
        <ele>837.487001</ele>
        <time>2025-09-03T10:46:18.451Z</time>
      </trkpt>
      <trkpt lat="43.246570" lon="-4.759763">
        <ele>836.456209</ele>
        <time>2025-09-03T10:46:47.957Z</time>
      </trkpt>
      <trkpt lat="43.246629" lon="-4.759820">
        <ele>836.113680</ele>
        <time>2025-09-03T10:46:57.521Z</time>
      </trkpt>
      <trkpt lat="43.246812" lon="-4.759883">
        <ele>835.217929</ele>
        <time>2025-09-03T10:47:22.013Z</time>
      </trkpt>
      <trkpt lat="43.247118" lon="-4.760101">
        <ele>833.581131</ele>
        <time>2025-09-03T10:48:05.270Z</time>
      </trkpt>
      <trkpt lat="43.247266" lon="-4.760066">
        <ele>832.868105</ele>
        <time>2025-09-03T10:48:24.353Z</time>
      </trkpt>
      <trkpt lat="43.247498" lon="-4.760095">
        <ele>831.616147</ele>
        <time>2025-09-03T10:48:53.495Z</time>
      </trkpt>
      <trkpt lat="43.247583" lon="-4.760079">
        <ele>831.108159</ele>
        <time>2025-09-03T10:49:04.315Z</time>
      </trkpt>
      <trkpt lat="43.247795" lon="-4.760150">
        <ele>829.816111</ele>
        <time>2025-09-03T10:49:32.484Z</time>
      </trkpt>
      <trkpt lat="43.247966" lon="-4.759989">
        <ele>828.588410</ele>
        <time>2025-09-03T10:49:59.708Z</time>
      </trkpt>
      <trkpt lat="43.248087" lon="-4.759922">
        <ele>827.815899</ele>
        <time>2025-09-03T10:50:17.242Z</time>
      </trkpt>
      <trkpt lat="43.248171" lon="-4.759891">
        <ele>827.300885</ele>
        <time>2025-09-03T10:50:29.031Z</time>
      </trkpt>
      <trkpt lat="43.248302" lon="-4.759904">
        <ele>826.523218</ele>
        <time>2025-09-03T10:50:47.092Z</time>
      </trkpt>
      <trkpt lat="43.248309" lon="-4.759749">
        <ele>825.853457</ele>
        <time>2025-09-03T10:51:02.804Z</time>
      </trkpt>
      <trkpt lat="43.248337" lon="-4.759683">
        <ele>825.524054</ele>
        <time>2025-09-03T10:51:10.683Z</time>
      </trkpt>
      <trkpt lat="43.248386" lon="-4.759643">
        <ele>825.186515</ele>
        <time>2025-09-03T10:51:18.765Z</time>
      </trkpt>
      <trkpt lat="43.248442" lon="-4.759640">
        <ele>824.854690</ele>
        <time>2025-09-03T10:51:26.723Z</time>
      </trkpt>
      <trkpt lat="43.248601" lon="-4.759711">
        <ele>823.864716</ele>
        <time>2025-09-03T10:51:50.969Z</time>
      </trkpt>
      <trkpt lat="43.248698" lon="-4.759936">
        <ele>822.737123</ele>
        <time>2025-09-03T10:52:19.420Z</time>
      </trkpt>
      <trkpt lat="43.248758" lon="-4.759990">
        <ele>822.312337</ele>
        <time>2025-09-03T10:52:30.284Z</time>
      </trkpt>
      <trkpt lat="43.248840" lon="-4.760016">
        <ele>821.814040</ele>
        <time>2025-09-03T10:52:43.339Z</time>
      </trkpt>
      <trkpt lat="43.249003" lon="-4.759959">
        <ele>818.983389</ele>
        <time>2025-09-03T10:53:10.052Z</time>
      </trkpt>
      <trkpt lat="43.249024" lon="-4.759973">
        <ele>818.558547</ele>
        <time>2025-09-03T10:53:13.775Z</time>
      </trkpt>
      <trkpt lat="43.249220" lon="-4.760244">
        <ele>813.496252</ele>
        <time>2025-09-03T10:53:59.661Z</time>
      </trkpt>
      <trkpt lat="43.249304" lon="-4.760258">
        <ele>811.956358</ele>
        <time>2025-09-03T10:54:14.270Z</time>
      </trkpt>
      <trkpt lat="43.249457" lon="-4.760345">
        <ele>808.942622</ele>
        <time>2025-09-03T10:54:44.083Z</time>
      </trkpt>
      <trkpt lat="43.249626" lon="-4.760309">
        <ele>805.830281</ele>
        <time>2025-09-03T10:55:15.698Z</time>
      </trkpt>
      <trkpt lat="43.249889" lon="-4.760366">
        <ele>800.984815</ele>
        <time>2025-09-03T10:56:05.810Z</time>
      </trkpt>
      <trkpt lat="43.249922" lon="-4.760429">
        <ele>799.956214</ele>
        <time>2025-09-03T10:56:16.383Z</time>
      </trkpt>
      <trkpt lat="43.250300" lon="-4.760792">
        <ele>791.561404</ele>
        <time>2025-09-03T10:57:42.416Z</time>
      </trkpt>
      <trkpt lat="43.250455" lon="-4.760878">
        <ele>788.576802</ele>
        <time>2025-09-03T10:58:13.155Z</time>
      </trkpt>
      <trkpt lat="43.250445" lon="-4.760905">
        <ele>788.226710</ele>
        <time>2025-09-03T10:58:17.109Z</time>
      </trkpt>
      <trkpt lat="43.250338" lon="-4.760923">
        <ele>786.516104</ele>
        <time>2025-09-03T10:58:36.266Z</time>
      </trkpt>
      <trkpt lat="43.250333" lon="-4.760952">
        <ele>786.171661</ele>
        <time>2025-09-03T10:58:40.121Z</time>
      </trkpt>
      <trkpt lat="43.250486" lon="-4.761045">
        <ele>783.516508</ele>
        <time>2025-09-03T10:59:09.055Z</time>
      </trkpt>
      <trkpt lat="43.250752" lon="-4.761315">
        <ele>778.267232</ele>
        <time>2025-09-03T11:00:03.548Z</time>
      </trkpt>
      <trkpt lat="43.251120" lon="-4.761600">
        <ele>771.562720</ele>
        <time>2025-09-03T11:01:10.431Z</time>
      </trkpt>
      <trkpt lat="43.251213" lon="-4.761645">
        <ele>769.998001</ele>
        <time>2025-09-03T11:01:25.848Z</time>
      </trkpt>
      <trkpt lat="43.251247" lon="-4.761607">
        <ele>769.302316</ele>
        <time>2025-09-03T11:01:32.740Z</time>
      </trkpt>
      <trkpt lat="43.251460" lon="-4.761558">
        <ele>765.875251</ele>
        <time>2025-09-03T11:02:06.782Z</time>
      </trkpt>
      <trkpt lat="43.251532" lon="-4.761558">
        <ele>764.732734</ele>
        <time>2025-09-03T11:02:18.361Z</time>
      </trkpt>
      <trkpt lat="43.251681" lon="-4.761558">
        <ele>762.368357</ele>
        <time>2025-09-03T11:02:42.504Z</time>
      </trkpt>
      <trkpt lat="43.251857" lon="-4.761422">
        <ele>759.445940</ele>
        <time>2025-09-03T11:03:08.441Z</time>
      </trkpt>
      <trkpt lat="43.251922" lon="-4.761417">
        <ele>758.643395</ele>
        <time>2025-09-03T11:03:16.912Z</time>
      </trkpt>
      <trkpt lat="43.251969" lon="-4.761461">
        <ele>757.942132</ele>
        <time>2025-09-03T11:03:24.246Z</time>
      </trkpt>
      <trkpt lat="43.251991" lon="-4.761541">
        <ele>757.174342</ele>
        <time>2025-09-03T11:03:32.214Z</time>
      </trkpt>
      <trkpt lat="43.251955" lon="-4.761944">
        <ele>753.528810</ele>
        <time>2025-09-03T11:04:10.163Z</time>
      </trkpt>
      <trkpt lat="43.251911" lon="-4.762187">
        <ele>751.280572</ele>
        <time>2025-09-03T11:04:33.325Z</time>
      </trkpt>
      <trkpt lat="43.251949" lon="-4.762433">
        <ele>749.022680</ele>
        <time>2025-09-03T11:04:56.526Z</time>
      </trkpt>
      <trkpt lat="43.251951" lon="-4.762691">
        <ele>746.706043</ele>
        <time>2025-09-03T11:05:20.043Z</time>
      </trkpt>
      <trkpt lat="43.252038" lon="-4.763042">
        <ele>743.377027</ele>
        <time>2025-09-03T11:05:53.680Z</time>
      </trkpt>
      <trkpt lat="43.252100" lon="-4.763204">
        <ele>741.733898</ele>
        <time>2025-09-03T11:06:09.988Z</time>
      </trkpt>
      <trkpt lat="43.252440" lon="-4.763754">
        <ele>736.749725</ele>
        <time>2025-09-03T11:07:11.032Z</time>
      </trkpt>
      <trkpt lat="43.252581" lon="-4.763883">
        <ele>735.700678</ele>
        <time>2025-09-03T11:07:29.760Z</time>
      </trkpt>
      <trkpt lat="43.252837" lon="-4.763979">
        <ele>734.057627</ele>
        <time>2025-09-03T11:07:58.933Z</time>
      </trkpt>
      <trkpt lat="43.253116" lon="-4.763909">
        <ele>732.301625</ele>
        <time>2025-09-03T11:08:29.815Z</time>
      </trkpt>
      <trkpt lat="43.253264" lon="-4.763927">
        <ele>731.381711</ele>
        <time>2025-09-03T11:08:46.197Z</time>
      </trkpt>
      <trkpt lat="43.253602" lon="-4.764076">
        <ele>729.183804</ele>
        <time>2025-09-03T11:09:25.973Z</time>
      </trkpt>
      <trkpt lat="43.253862" lon="-4.764307">
        <ele>727.266413</ele>
        <time>2025-09-03T11:10:00.970Z</time>
      </trkpt>
      <trkpt lat="43.254104" lon="-4.764449">
        <ele>725.878595</ele>
        <time>2025-09-03T11:10:30.671Z</time>
      </trkpt>
      <trkpt lat="43.254729" lon="-4.764429">
        <ele>722.638445</ele>
        <time>2025-09-03T11:11:40.473Z</time>
      </trkpt>
      <trkpt lat="43.255044" lon="-4.764463">
        <ele>721.000817</ele>
        <time>2025-09-03T11:12:15.103Z</time>
      </trkpt>
      <trkpt lat="43.255317" lon="-4.764529">
        <ele>719.564138</ele>
        <time>2025-09-03T11:12:45.198Z</time>
      </trkpt>
      <trkpt lat="43.255671" lon="-4.764771">
        <ele>717.670729</ele>
        <time>2025-09-03T11:13:28.594Z</time>
      </trkpt>
      <trkpt lat="43.255801" lon="-4.765007">
        <ele>717.169108</ele>
        <time>2025-09-03T11:13:52.320Z</time>
      </trkpt>
      <trkpt lat="43.255886" lon="-4.765101">
        <ele>716.915065</ele>
        <time>2025-09-03T11:14:04.263Z</time>
      </trkpt>
      <trkpt lat="43.256413" lon="-4.765346">
        <ele>715.619989</ele>
        <time>2025-09-03T11:15:03.242Z</time>
      </trkpt>
      <trkpt lat="43.256512" lon="-4.765439">
        <ele>715.340783</ele>
        <time>2025-09-03T11:15:15.689Z</time>
      </trkpt>
      <trkpt lat="43.256560" lon="-4.765499">
        <ele>715.189692</ele>
        <time>2025-09-03T11:15:22.456Z</time>
      </trkpt>
      <trkpt lat="43.256659" lon="-4.765597">
        <ele>714.905613</ele>
        <time>2025-09-03T11:15:34.944Z</time>
      </trkpt>
      <trkpt lat="43.256725" lon="-4.765620">
        <ele>714.747118</ele>
        <time>2025-09-03T11:15:41.971Z</time>
      </trkpt>
      <trkpt lat="43.257035" lon="-4.765540">
        <ele>714.012912</ele>
        <time>2025-09-03T11:16:13.905Z</time>
      </trkpt>
      <trkpt lat="43.257258" lon="-4.765587">
        <ele>713.476308</ele>
        <time>2025-09-03T11:16:36.673Z</time>
      </trkpt>
      <trkpt lat="43.257541" lon="-4.765714">
        <ele>712.719064</ele>
        <time>2025-09-03T11:17:06.559Z</time>
      </trkpt>
      <trkpt lat="43.257770" lon="-4.765779">
        <ele>712.124315</ele>
        <time>2025-09-03T11:17:30.321Z</time>
      </trkpt>
      <trkpt lat="43.257933" lon="-4.765875">
        <ele>711.673217</ele>
        <time>2025-09-03T11:17:48.181Z</time>
      </trkpt>
      <trkpt lat="43.258469" lon="-4.766307">
        <ele>710.092472</ele>
        <time>2025-09-03T11:18:54.165Z</time>
      </trkpt>
      <trkpt lat="43.258600" lon="-4.766430">
        <ele>709.688843</ele>
        <time>2025-09-03T11:19:11.561Z</time>
      </trkpt>
      <trkpt lat="43.258777" lon="-4.766662">
        <ele>709.066489</ele>
        <time>2025-09-03T11:19:38.786Z</time>
      </trkpt>
      <trkpt lat="43.258873" lon="-4.766877">
        <ele>708.122183</ele>
        <time>2025-09-03T11:19:59.530Z</time>
      </trkpt>
      <trkpt lat="43.258978" lon="-4.767232">
        <ele>706.638225</ele>
        <time>2025-09-03T11:20:31.340Z</time>
      </trkpt>
      <trkpt lat="43.259045" lon="-4.767354">
        <ele>706.046440</ele>
        <time>2025-09-03T11:20:44.145Z</time>
      </trkpt>
      <trkpt lat="43.259213" lon="-4.767536">
        <ele>704.908432</ele>
        <time>2025-09-03T11:21:08.808Z</time>
      </trkpt>
      <trkpt lat="43.259412" lon="-4.767699">
        <ele>703.676159</ele>
        <time>2025-09-03T11:21:35.526Z</time>
      </trkpt>
      <trkpt lat="43.259577" lon="-4.767888">
        <ele>702.533462</ele>
        <time>2025-09-03T11:21:59.323Z</time>
      </trkpt>
      <trkpt lat="43.259832" lon="-4.768317">
        <ele>700.388822</ele>
        <time>2025-09-03T11:22:42.830Z</time>
      </trkpt>
      <trkpt lat="43.260105" lon="-4.768517">
        <ele>699.017313</ele>
        <time>2025-09-03T11:23:15.308Z</time>
      </trkpt>
      <trkpt lat="43.260166" lon="-4.768635">
        <ele>698.667764</ele>
        <time>2025-09-03T11:23:26.410Z</time>
      </trkpt>
      <trkpt lat="43.260258" lon="-4.768735">
        <ele>698.278572</ele>
        <time>2025-09-03T11:23:38.496Z</time>
      </trkpt>
      <trkpt lat="43.260702" lon="-4.769022">
        <ele>696.650837</ele>
        <time>2025-09-03T11:24:29.917Z</time>
      </trkpt>
      <trkpt lat="43.260902" lon="-4.769182">
        <ele>695.883077</ele>
        <time>2025-09-03T11:24:54.096Z</time>
      </trkpt>
      <trkpt lat="43.261082" lon="-4.769273">
        <ele>695.246850</ele>
        <time>2025-09-03T11:25:14.194Z</time>
      </trkpt>
      <trkpt lat="43.261266" lon="-4.769475">
        <ele>694.465462</ele>
        <time>2025-09-03T11:25:39.233Z</time>
      </trkpt>
      <trkpt lat="43.261340" lon="-4.769598">
        <ele>694.080078</ele>
        <time>2025-09-03T11:25:51.994Z</time>
      </trkpt>
      <trkpt lat="43.261393" lon="-4.769754">
        <ele>693.664267</ele>
        <time>2025-09-03T11:26:05.953Z</time>
      </trkpt>
      <trkpt lat="43.261500" lon="-4.770607">
        <ele>690.233487</ele>
        <time>2025-09-03T11:27:17.629Z</time>
      </trkpt>
      <trkpt lat="43.261711" lon="-4.771196">
        <ele>687.548228</ele>
        <time>2025-09-03T11:28:11.972Z</time>
      </trkpt>
      <trkpt lat="43.261983" lon="-4.772172">
        <ele>683.358435</ele>
        <time>2025-09-03T11:29:36.490Z</time>
      </trkpt>
      <trkpt lat="43.262036" lon="-4.772621">
        <ele>682.732248</ele>
        <time>2025-09-03T11:30:11.887Z</time>
      </trkpt>
      <trkpt lat="43.262199" lon="-4.773418">
        <ele>681.592605</ele>
        <time>2025-09-03T11:31:15.794Z</time>
      </trkpt>
      <trkpt lat="43.262240" lon="-4.773611">
        <ele>681.315837</ele>
        <time>2025-09-03T11:31:31.146Z</time>
      </trkpt>
      <trkpt lat="43.262258" lon="-4.773802">
        <ele>681.050704</ele>
        <time>2025-09-03T11:31:45.476Z</time>
      </trkpt>
      <trkpt lat="43.262242" lon="-4.773924">
        <ele>680.880050</ele>
        <time>2025-09-03T11:31:54.561Z</time>
      </trkpt>
      <trkpt lat="43.262187" lon="-4.774232">
        <ele>680.443479</ele>
        <time>2025-09-03T11:32:18.025Z</time>
      </trkpt>
      <trkpt lat="43.262178" lon="-4.774415">
        <ele>680.190978</ele>
        <time>2025-09-03T11:32:31.520Z</time>
      </trkpt>
      <trkpt lat="43.262194" lon="-4.774618">
        <ele>680.147603</ele>
        <time>2025-09-03T11:32:46.491Z</time>
      </trkpt>
      <trkpt lat="43.262237" lon="-4.774780">
        <ele>680.526364</ele>
        <time>2025-09-03T11:32:59.804Z</time>
      </trkpt>
      <trkpt lat="43.262394" lon="-4.774866">
        <ele>681.036237</ele>
        <time>2025-09-03T11:33:18.709Z</time>
      </trkpt>
      <trkpt lat="43.262589" lon="-4.775104">
        <ele>681.823203</ele>
        <time>2025-09-03T11:33:48.692Z</time>
      </trkpt>
      <trkpt lat="43.262749" lon="-4.775448">
        <ele>682.719829</ele>
        <time>2025-09-03T11:34:22.646Z</time>
      </trkpt>
      <trkpt lat="43.262843" lon="-4.775559">
        <ele>683.093795</ele>
        <time>2025-09-03T11:34:36.631Z</time>
      </trkpt>
      <trkpt lat="43.262903" lon="-4.775573">
        <ele>683.277377</ele>
        <time>2025-09-03T11:34:43.051Z</time>
      </trkpt>
      <trkpt lat="43.262985" lon="-4.775507">
        <ele>683.564084</ele>
        <time>2025-09-03T11:34:53.250Z</time>
      </trkpt>
      <trkpt lat="43.263120" lon="-4.775432">
        <ele>684.003370</ele>
        <time>2025-09-03T11:35:08.766Z</time>
      </trkpt>
      <trkpt lat="43.263168" lon="-4.775474">
        <ele>684.175055</ele>
        <time>2025-09-03T11:35:14.768Z</time>
      </trkpt>
      <trkpt lat="43.263270" lon="-4.775371">
        <ele>684.556967</ele>
        <time>2025-09-03T11:35:29.473Z</time>
      </trkpt>
      <trkpt lat="43.263381" lon="-4.775892">
        <ele>686.547837</ele>
        <time>2025-09-03T11:36:13.626Z</time>
      </trkpt>
      <trkpt lat="43.263427" lon="-4.776156">
        <ele>688.620977</ele>
        <time>2025-09-03T11:36:36.501Z</time>
      </trkpt>
      <trkpt lat="43.263412" lon="-4.776256">
        <ele>689.400732</ele>
        <time>2025-09-03T11:36:45.169Z</time>
      </trkpt>
      <trkpt lat="43.263422" lon="-4.776450">
        <ele>690.886060</ele>
        <time>2025-09-03T11:37:02.848Z</time>
      </trkpt>
      <trkpt lat="43.263412" lon="-4.776256">
        <ele>692.371387</ele>
        <time>2025-09-03T11:37:20.722Z</time>
      </trkpt>
      <trkpt lat="43.263427" lon="-4.776156">
        <ele>693.151143</ele>
        <time>2025-09-03T11:37:30.285Z</time>
      </trkpt>
      <trkpt lat="43.263381" lon="-4.775892">
        <ele>695.224283</ele>
        <time>2025-09-03T11:37:54.887Z</time>
      </trkpt>
      <trkpt lat="43.263270" lon="-4.775371">
        <ele>699.370077</ele>
        <time>2025-09-03T11:38:47.916Z</time>
      </trkpt>
      <trkpt lat="43.263306" lon="-4.775148">
        <ele>701.114528</ele>
        <time>2025-09-03T11:39:15.050Z</time>
      </trkpt>
      <trkpt lat="43.263360" lon="-4.774843">
        <ele>703.511741</ele>
        <time>2025-09-03T11:39:59.052Z</time>
      </trkpt>
      <trkpt lat="43.263372" lon="-4.774783">
        <ele>703.986942</ele>
        <time>2025-09-03T11:40:07.960Z</time>
      </trkpt>
      <trkpt lat="43.263389" lon="-4.774618">
        <ele>706.248644</ele>
        <time>2025-09-03T11:40:32.279Z</time>
      </trkpt>
      <trkpt lat="43.263346" lon="-4.774366">
        <ele>710.242717</ele>
        <time>2025-09-03T11:41:09.540Z</time>
      </trkpt>
      <trkpt lat="43.263370" lon="-4.774066">
        <ele>714.900024</ele>
        <time>2025-09-03T11:41:55.310Z</time>
      </trkpt>
      <trkpt lat="43.263450" lon="-4.773801">
        <ele>719.326844</ele>
        <time>2025-09-03T11:42:40.994Z</time>
      </trkpt>
      <trkpt lat="43.263526" lon="-4.773664">
        <ele>721.984519</ele>
        <time>2025-09-03T11:43:08.921Z</time>
      </trkpt>
      <trkpt lat="43.263513" lon="-4.773486">
        <ele>724.745101</ele>
        <time>2025-09-03T11:43:37.548Z</time>
      </trkpt>
      <trkpt lat="43.263602" lon="-4.773523">
        <ele>726.715631</ele>
        <time>2025-09-03T11:43:57.616Z</time>
      </trkpt>
      <trkpt lat="43.263637" lon="-4.773498">
        <ele>727.551650</ele>
        <time>2025-09-03T11:44:06.268Z</time>
      </trkpt>
      <trkpt lat="43.263629" lon="-4.773447">
        <ele>728.356705</ele>
        <time>2025-09-03T11:44:14.607Z</time>
      </trkpt>
      <trkpt lat="43.263565" lon="-4.773360">
        <ele>730.265041</ele>
        <time>2025-09-03T11:44:33.541Z</time>
      </trkpt>
      <trkpt lat="43.263584" lon="-4.773302">
        <ele>731.246458</ele>
        <time>2025-09-03T11:44:43.923Z</time>
      </trkpt>
      <trkpt lat="43.263506" lon="-4.773175">
        <ele>733.810219</ele>
        <time>2025-09-03T11:45:15.778Z</time>
      </trkpt>
      <trkpt lat="43.263444" lon="-4.772768">
        <ele>740.226784</ele>
        <time>2025-09-03T11:46:34.135Z</time>
      </trkpt>
      <trkpt lat="43.263450" lon="-4.772680">
        <ele>741.590694</ele>
        <time>2025-09-03T11:46:50.381Z</time>
      </trkpt>
      <trkpt lat="43.263524" lon="-4.772606">
        <ele>743.348504</ele>
        <time>2025-09-03T11:47:12.189Z</time>
      </trkpt>
      <trkpt lat="43.263496" lon="-4.772251">
        <ele>747.967031</ele>
        <time>2025-09-03T11:48:12.179Z</time>
      </trkpt>
      <trkpt lat="43.263342" lon="-4.771405">
        <ele>759.246154</ele>
        <time>2025-09-03T11:50:29.592Z</time>
      </trkpt>
      <trkpt lat="43.263268" lon="-4.771244">
        <ele>761.708689</ele>
        <time>2025-09-03T11:50:58.747Z</time>
      </trkpt>
      <trkpt lat="43.263166" lon="-4.771099">
        <ele>764.316310</ele>
        <time>2025-09-03T11:51:29.483Z</time>
      </trkpt>
      <trkpt lat="43.263088" lon="-4.770890">
        <ele>767.353928</ele>
        <time>2025-09-03T11:52:05.767Z</time>
      </trkpt>
      <trkpt lat="43.262881" lon="-4.769919">
        <ele>782.437079</ele>
        <time>2025-09-03T11:54:54.722Z</time>
      </trkpt>
      <trkpt lat="43.262873" lon="-4.769398">
        <ele>791.388226</ele>
        <time>2025-09-03T11:56:34.150Z</time>
      </trkpt>
      <trkpt lat="43.262737" lon="-4.768878">
        <ele>800.878810</ele>
        <time>2025-09-03T11:58:28.702Z</time>
      </trkpt>
      <trkpt lat="43.262678" lon="-4.768455">
        <ele>808.276729</ele>
        <time>2025-09-03T12:00:01.889Z</time>
      </trkpt>
      <trkpt lat="43.262623" lon="-4.768427">
        <ele>809.660330</ele>
        <time>2025-09-03T12:00:19.583Z</time>
      </trkpt>
      <trkpt lat="43.262389" lon="-4.767982">
        <ele>819.463045</ele>
        <time>2025-09-03T12:02:19.795Z</time>
      </trkpt>
      <trkpt lat="43.262369" lon="-4.767877">
        <ele>821.629485</ele>
        <time>2025-09-03T12:02:43.291Z</time>
      </trkpt>
      <trkpt lat="43.262382" lon="-4.767836">
        <ele>822.522107</ele>
        <time>2025-09-03T12:02:53.022Z</time>
      </trkpt>
      <trkpt lat="43.262415" lon="-4.767822">
        <ele>823.468850</ele>
        <time>2025-09-03T12:03:03.272Z</time>
      </trkpt>
      <trkpt lat="43.262459" lon="-4.767848">
        <ele>824.781853</ele>
        <time>2025-09-03T12:03:17.513Z</time>
      </trkpt>
      <trkpt lat="43.262422" lon="-4.767641">
        <ele>829.036472</ele>
        <time>2025-09-03T12:04:03.033Z</time>
      </trkpt>
      <trkpt lat="43.262298" lon="-4.767267">
        <ele>837.239310</ele>
        <time>2025-09-03T12:05:29.955Z</time>
      </trkpt>
      <trkpt lat="43.262169" lon="-4.767078">
        <ele>842.410038</ele>
        <time>2025-09-03T12:06:24.558Z</time>
      </trkpt>
      <trkpt lat="43.262122" lon="-4.766770">
        <ele>848.691650</ele>
        <time>2025-09-03T12:07:31.279Z</time>
      </trkpt>
      <trkpt lat="43.262113" lon="-4.766434">
        <ele>855.403186</ele>
        <time>2025-09-03T12:08:43.771Z</time>
      </trkpt>
      <trkpt lat="43.262046" lon="-4.766292">
        <ele>858.780652</ele>
        <time>2025-09-03T12:09:21.032Z</time>
      </trkpt>
      <trkpt lat="43.261948" lon="-4.765956">
        <ele>866.005612</ele>
        <time>2025-09-03T12:10:42.834Z</time>
      </trkpt>
      <trkpt lat="43.261905" lon="-4.765638">
        <ele>872.037937</ele>
        <time>2025-09-03T12:11:59.289Z</time>
      </trkpt>
      <trkpt lat="43.261918" lon="-4.765304">
        <ele>878.271028</ele>
        <time>2025-09-03T12:13:22.913Z</time>
      </trkpt>
      <trkpt lat="43.261900" lon="-4.765097">
        <ele>882.155950</ele>
        <time>2025-09-03T12:14:15.659Z</time>
      </trkpt>
      <trkpt lat="43.261922" lon="-4.764867">
        <ele>886.478896</ele>
        <time>2025-09-03T12:15:11.332Z</time>
      </trkpt>
      <trkpt lat="43.261833" lon="-4.764139">
        <ele>900.235282</ele>
        <time>2025-09-03T12:17:41.046Z</time>
      </trkpt>
      <trkpt lat="43.261751" lon="-4.764017">
        <ele>903.329159</ele>
        <time>2025-09-03T12:18:10.021Z</time>
      </trkpt>
      <trkpt lat="43.261743" lon="-4.763799">
        <ele>907.396831</ele>
        <time>2025-09-03T12:18:46.462Z</time>
      </trkpt>
      <trkpt lat="43.261761" lon="-4.763736">
        <ele>908.657988</ele>
        <time>2025-09-03T12:18:57.719Z</time>
      </trkpt>
      <trkpt lat="43.261641" lon="-4.763654">
        <ele>912.087988</ele>
        <time>2025-09-03T12:19:22.693Z</time>
      </trkpt>
      <trkpt lat="43.261391" lon="-4.763658">
        <ele>916.840264</ele>
        <time>2025-09-03T12:20:09.219Z</time>
      </trkpt>
      <trkpt lat="43.261203" lon="-4.763567">
        <ele>920.625134</ele>
        <time>2025-09-03T12:20:45.384Z</time>
      </trkpt>
      <trkpt lat="43.260857" lon="-4.763472">
        <ele>927.324743</ele>
        <time>2025-09-03T12:21:44.629Z</time>
      </trkpt>
      <trkpt lat="43.260784" lon="-4.763432">
        <ele>928.817086</ele>
        <time>2025-09-03T12:21:56.793Z</time>
      </trkpt>
      <trkpt lat="43.260593" lon="-4.762923">
        <ele>936.734577</ele>
        <time>2025-09-03T12:23:05.684Z</time>
      </trkpt>
      <trkpt lat="43.260313" lon="-4.762398">
        <ele>945.732497</ele>
        <time>2025-09-03T12:24:49.895Z</time>
      </trkpt>
      <trkpt lat="43.260250" lon="-4.761989">
        <ele>950.575127</ele>
        <time>2025-09-03T12:26:02.865Z</time>
      </trkpt>
      <trkpt lat="43.260272" lon="-4.761594">
        <ele>955.075033</ele>
        <time>2025-09-03T12:27:06.095Z</time>
      </trkpt>
      <trkpt lat="43.260238" lon="-4.760929">
        <ele>962.647359</ele>
        <time>2025-09-03T12:28:32.445Z</time>
      </trkpt>
      <trkpt lat="43.259968" lon="-4.760516">
        <ele>968.951627</ele>
        <time>2025-09-03T12:29:27.871Z</time>
      </trkpt>
      <trkpt lat="43.259797" lon="-4.760391">
        <ele>971.973225</ele>
        <time>2025-09-03T12:29:52.360Z</time>
      </trkpt>
      <trkpt lat="43.259714" lon="-4.760206">
        <ele>974.374256</ele>
        <time>2025-09-03T12:30:11.337Z</time>
      </trkpt>
      <trkpt lat="43.259562" lon="-4.759588">
        <ele>977.882561</ele>
        <time>2025-09-03T12:31:05.364Z</time>
      </trkpt>
      <trkpt lat="43.259524" lon="-4.759340">
        <ele>979.245613</ele>
        <time>2025-09-03T12:31:26.247Z</time>
      </trkpt>
      <trkpt lat="43.259450" lon="-4.759148">
        <ele>980.413971</ele>
        <time>2025-09-03T12:31:44.334Z</time>
      </trkpt>
      <trkpt lat="43.259327" lon="-4.758561">
        <ele>983.699199</ele>
        <time>2025-09-03T12:32:38.224Z</time>
      </trkpt>
      <trkpt lat="43.259214" lon="-4.758283">
        <ele>985.411539</ele>
        <time>2025-09-03T12:33:08.492Z</time>
      </trkpt>
      <trkpt lat="43.259190" lon="-4.758037">
        <ele>986.746458</ele>
        <time>2025-09-03T12:33:33.011Z</time>
      </trkpt>
      <trkpt lat="43.259062" lon="-4.757526">
        <ele>991.489092</ele>
        <time>2025-09-03T12:34:30.994Z</time>
      </trkpt>
      <trkpt lat="43.259069" lon="-4.757408">
        <ele>992.694696</ele>
        <time>2025-09-03T12:34:44.195Z</time>
      </trkpt>
      <trkpt lat="43.259132" lon="-4.757188">
        <ele>995.101984</ele>
        <time>2025-09-03T12:35:11.363Z</time>
      </trkpt>
      <trkpt lat="43.259148" lon="-4.756757">
        <ele>999.496659</ele>
        <time>2025-09-03T12:36:03.130Z</time>
      </trkpt>
      <trkpt lat="43.259131" lon="-4.756682">
        <ele>1000.296540</ele>
        <time>2025-09-03T12:36:12.869Z</time>
      </trkpt>
      <trkpt lat="43.259096" lon="-4.756651">
        <ele>1000.878922</ele>
        <time>2025-09-03T12:36:19.544Z</time>
      </trkpt>
      <trkpt lat="43.258955" lon="-4.756648">
        <ele>1002.850753</ele>
        <time>2025-09-03T12:36:42.960Z</time>
      </trkpt>
      <trkpt lat="43.258826" lon="-4.756607">
        <ele>1004.702242</ele>
        <time>2025-09-03T12:37:05.084Z</time>
      </trkpt>
      <trkpt lat="43.258626" lon="-4.756773">
        <ele>1007.970033</ele>
        <time>2025-09-03T12:37:43.469Z</time>
      </trkpt>
      <trkpt lat="43.258531" lon="-4.756813">
        <ele>1009.359461</ele>
        <time>2025-09-03T12:37:59.969Z</time>
      </trkpt>
      <trkpt lat="43.258457" lon="-4.756805">
        <ele>1010.397401</ele>
        <time>2025-09-03T12:38:12.216Z</time>
      </trkpt>
      <trkpt lat="43.258302" lon="-4.756706">
        <ele>1012.775900</ele>
        <time>2025-09-03T12:38:40.330Z</time>
      </trkpt>
      <trkpt lat="43.258179" lon="-4.756800">
        <ele>1014.160849</ele>
        <time>2025-09-03T12:39:03.091Z</time>
      </trkpt>
      <trkpt lat="43.258137" lon="-4.756790">
        <ele>1014.580235</ele>
        <time>2025-09-03T12:39:09.919Z</time>
      </trkpt>
      <trkpt lat="43.258114" lon="-4.756526">
        <ele>1016.485327</ele>
        <time>2025-09-03T12:39:39.746Z</time>
      </trkpt>
      <trkpt lat="43.258132" lon="-4.756342">
        <ele>1017.815559</ele>
        <time>2025-09-03T12:39:59.911Z</time>
      </trkpt>
      <trkpt lat="43.258500" lon="-4.755953">
        <ele>1022.384739</ele>
        <time>2025-09-03T12:41:04.314Z</time>
      </trkpt>
      <trkpt lat="43.258533" lon="-4.755883">
        <ele>1022.982212</ele>
        <time>2025-09-03T12:41:12.083Z</time>
      </trkpt>
      <trkpt lat="43.258503" lon="-4.755832">
        <ele>1023.451946</ele>
        <time>2025-09-03T12:41:18.183Z</time>
      </trkpt>
      <trkpt lat="43.258385" lon="-4.755764">
        <ele>1024.710993</ele>
        <time>2025-09-03T12:41:34.223Z</time>
      </trkpt>
      <trkpt lat="43.258178" lon="-4.755695">
        <ele>1026.806726</ele>
        <time>2025-09-03T12:42:00.551Z</time>
      </trkpt>
      <trkpt lat="43.258024" lon="-4.755695">
        <ele>1028.321865</ele>
        <time>2025-09-03T12:42:19.193Z</time>
      </trkpt>
      <trkpt lat="43.257959" lon="-4.755744">
        <ele>1029.051410</ele>
        <time>2025-09-03T12:42:27.901Z</time>
      </trkpt>
      <trkpt lat="43.257741" lon="-4.756181">
        <ele>1031.986154</ele>
        <time>2025-09-03T12:43:12.540Z</time>
      </trkpt>
      <trkpt lat="43.257666" lon="-4.756281">
        <ele>1032.646327</ele>
        <time>2025-09-03T12:43:24.504Z</time>
      </trkpt>
      <trkpt lat="43.257583" lon="-4.756317">
        <ele>1033.195995</ele>
        <time>2025-09-03T12:43:34.365Z</time>
      </trkpt>
      <trkpt lat="43.257379" lon="-4.756309">
        <ele>1034.484769</ele>
        <time>2025-09-03T12:43:58.083Z</time>
      </trkpt>
      <trkpt lat="43.257135" lon="-4.756251">
        <ele>1036.048534</ele>
        <time>2025-09-03T12:44:26.903Z</time>
      </trkpt>
      <trkpt lat="43.256940" lon="-4.756085">
        <ele>1037.497408</ele>
        <time>2025-09-03T12:44:54.393Z</time>
      </trkpt>
      <trkpt lat="43.256849" lon="-4.756004">
        <ele>1038.182252</ele>
        <time>2025-09-03T12:45:07.570Z</time>
      </trkpt>
      <trkpt lat="43.256801" lon="-4.755866">
        <ele>1038.885597</ele>
        <time>2025-09-03T12:45:21.324Z</time>
      </trkpt>
      <trkpt lat="43.256750" lon="-4.755722">
        <ele>1039.622027</ele>
        <time>2025-09-03T12:45:35.883Z</time>
      </trkpt>
      <trkpt lat="43.256365" lon="-4.755183">
        <ele>1042.508532</ele>
        <time>2025-09-03T12:46:48.805Z</time>
      </trkpt>
      <trkpt lat="43.256088" lon="-4.754930">
        <ele>1043.657106</ele>
        <time>2025-09-03T12:47:32.466Z</time>
      </trkpt>
      <trkpt lat="43.256008" lon="-4.754730">
        <ele>1044.230840</ele>
        <time>2025-09-03T12:47:52.956Z</time>
      </trkpt>
      <trkpt lat="43.255922" lon="-4.754595">
        <ele>1044.681812</ele>
        <time>2025-09-03T12:48:08.101Z</time>
      </trkpt>
      <trkpt lat="43.255849" lon="-4.754268">
        <ele>1045.541780</ele>
        <time>2025-09-03T12:48:35.307Z</time>
      </trkpt>
      <trkpt lat="43.255794" lon="-4.754154">
        <ele>1045.885610</ele>
        <time>2025-09-03T12:48:45.765Z</time>
      </trkpt>
      <trkpt lat="43.255693" lon="-4.754045">
        <ele>1046.329122</ele>
        <time>2025-09-03T12:48:58.710Z</time>
      </trkpt>
      <trkpt lat="43.255530" lon="-4.753962">
        <ele>1046.929318</ele>
        <time>2025-09-03T12:49:16.459Z</time>
      </trkpt>
      <trkpt lat="43.255352" lon="-4.753707">
        <ele>1047.817437</ele>
        <time>2025-09-03T12:49:49.930Z</time>
      </trkpt>
      <trkpt lat="43.255247" lon="-4.753477">
        <ele>1047.865951</ele>
        <time>2025-09-03T12:50:15.934Z</time>
      </trkpt>
      <trkpt lat="43.255232" lon="-4.752864">
        <ele>1047.405078</ele>
        <time>2025-09-03T12:51:15.863Z</time>
      </trkpt>
      <trkpt lat="43.255257" lon="-4.752625">
        <ele>1047.223649</ele>
        <time>2025-09-03T12:51:39.823Z</time>
      </trkpt>
      <trkpt lat="43.255168" lon="-4.752371">
        <ele>1047.011852</ele>
        <time>2025-09-03T12:52:06.964Z</time>
      </trkpt>
      <trkpt lat="43.255128" lon="-4.752123">
        <ele>1046.820988</ele>
        <time>2025-09-03T12:52:30.577Z</time>
      </trkpt>
      <trkpt lat="43.255124" lon="-4.751939">
        <ele>1046.682667</ele>
        <time>2025-09-03T12:52:48.073Z</time>
      </trkpt>
      <trkpt lat="43.255019" lon="-4.751638">
        <ele>1046.431888</ele>
        <time>2025-09-03T12:53:21.896Z</time>
      </trkpt>
      <trkpt lat="43.254936" lon="-4.751253">
        <ele>1046.095290</ele>
        <time>2025-09-03T12:54:02.629Z</time>
      </trkpt>
      <trkpt lat="43.254850" lon="-4.751145">
        <ele>1045.813364</ele>
        <time>2025-09-03T12:54:18.103Z</time>
      </trkpt>
      <trkpt lat="43.254743" lon="-4.750921">
        <ele>1045.341415</ele>
        <time>2025-09-03T12:54:42.702Z</time>
      </trkpt>
      <trkpt lat="43.254609" lon="-4.750298">
        <ele>1044.196953</ele>
        <time>2025-09-03T12:55:44.694Z</time>
      </trkpt>
      <trkpt lat="43.254572" lon="-4.750187">
        <ele>1043.981885</ele>
        <time>2025-09-03T12:55:56.255Z</time>
      </trkpt>
      <trkpt lat="43.254534" lon="-4.750183">
        <ele>1043.889693</ele>
        <time>2025-09-03T12:56:01.487Z</time>
      </trkpt>
      <trkpt lat="43.254458" lon="-4.750267">
        <ele>1043.653684</ele>
        <time>2025-09-03T12:56:14.449Z</time>
      </trkpt>
      <trkpt lat="43.254390" lon="-4.750299">
        <ele>1043.479799</ele>
        <time>2025-09-03T12:56:24.235Z</time>
      </trkpt>
      <trkpt lat="43.254376" lon="-4.750346">
        <ele>1043.390336</ele>
        <time>2025-09-03T12:56:29.203Z</time>
      </trkpt>
      <trkpt lat="43.254100" lon="-4.750494">
        <ele>1042.673581</ele>
        <time>2025-09-03T12:57:09.243Z</time>
      </trkpt>
      <trkpt lat="43.254003" lon="-4.750506">
        <ele>1042.437987</ele>
        <time>2025-09-03T12:57:22.362Z</time>
      </trkpt>
      <trkpt lat="43.253946" lon="-4.750553">
        <ele>1042.277150</ele>
        <time>2025-09-03T12:57:31.554Z</time>
      </trkpt>
      <trkpt lat="43.253857" lon="-4.750576">
        <ele>1042.058079</ele>
        <time>2025-09-03T12:57:44.059Z</time>
      </trkpt>
      <trkpt lat="43.253612" lon="-4.750560">
        <ele>1041.492844</ele>
        <time>2025-09-03T12:58:18.430Z</time>
      </trkpt>
      <trkpt lat="43.253440" lon="-4.750442">
        <ele>1041.066102</ele>
        <time>2025-09-03T12:58:45.716Z</time>
      </trkpt>
      <trkpt lat="43.253229" lon="-4.750066">
        <ele>1040.298823</ele>
        <time>2025-09-03T12:59:32.323Z</time>
      </trkpt>
      <trkpt lat="43.253123" lon="-4.749755">
        <ele>1039.743775</ele>
        <time>2025-09-03T13:00:04.168Z</time>
      </trkpt>
      <trkpt lat="43.253023" lon="-4.749127">
        <ele>1038.704647</ele>
        <time>2025-09-03T13:01:03.369Z</time>
      </trkpt>
      <trkpt lat="43.252932" lon="-4.748934">
        <ele>1038.332998</ele>
        <time>2025-09-03T13:01:24.489Z</time>
      </trkpt>
      <trkpt lat="43.252808" lon="-4.748462">
        <ele>1037.359123</ele>
        <time>2025-09-03T13:02:10.782Z</time>
      </trkpt>
      <trkpt lat="43.252908" lon="-4.748140">
        <ele>1036.477157</ele>
        <time>2025-09-03T13:02:44.093Z</time>
      </trkpt>
      <trkpt lat="43.252912" lon="-4.747985">
        <ele>1036.086383</ele>
        <time>2025-09-03T13:02:59.109Z</time>
      </trkpt>
      <trkpt lat="43.252852" lon="-4.747880">
        <ele>1035.750127</ele>
        <time>2025-09-03T13:03:12.096Z</time>
      </trkpt>
      <trkpt lat="43.252855" lon="-4.747706">
        <ele>1035.311604</ele>
        <time>2025-09-03T13:03:29.214Z</time>
      </trkpt>
      <trkpt lat="43.252697" lon="-4.747277">
        <ele>1034.100384</ele>
        <time>2025-09-03T13:04:16.860Z</time>
      </trkpt>
      <trkpt lat="43.252692" lon="-4.747250">
        <ele>1034.030192</ele>
        <time>2025-09-03T13:04:19.606Z</time>
      </trkpt>
      <trkpt lat="43.252588" lon="-4.746815">
        <ele>1032.876650</ele>
        <time>2025-09-03T13:05:05.626Z</time>
      </trkpt>
      <trkpt lat="43.252514" lon="-4.746370">
        <ele>1031.726596</ele>
        <time>2025-09-03T13:05:51.499Z</time>
      </trkpt>
      <trkpt lat="43.252442" lon="-4.745447">
        <ele>1029.173834</ele>
        <time>2025-09-03T13:07:23.057Z</time>
      </trkpt>
      <trkpt lat="43.252415" lon="-4.745349">
        <ele>1028.884213</ele>
        <time>2025-09-03T13:07:33.186Z</time>
      </trkpt>
      <trkpt lat="43.252217" lon="-4.744981">
        <ele>1027.619549</ele>
        <time>2025-09-03T13:08:17.081Z</time>
      </trkpt>
      <trkpt lat="43.252109" lon="-4.744492">
        <ele>1026.207093</ele>
        <time>2025-09-03T13:09:06.339Z</time>
      </trkpt>
      <trkpt lat="43.252068" lon="-4.744434">
        <ele>1025.983677</ele>
        <time>2025-09-03T13:09:14.218Z</time>
      </trkpt>
      <trkpt lat="43.251989" lon="-4.744404">
        <ele>1025.672604</ele>
        <time>2025-09-03T13:09:25.332Z</time>
      </trkpt>
      <trkpt lat="43.251859" lon="-4.744541">
        <ele>1025.050656</ele>
        <time>2025-09-03T13:09:47.410Z</time>
      </trkpt>
      <trkpt lat="43.251658" lon="-4.744648">
        <ele>1024.299189</ele>
        <time>2025-09-03T13:10:16.826Z</time>
      </trkpt>
      <trkpt lat="43.251237" lon="-4.744944">
        <ele>1022.728879</ele>
        <time>2025-09-03T13:11:22.775Z</time>
      </trkpt>
      <trkpt lat="43.251099" lon="-4.744936">
        <ele>1022.270317</ele>
        <time>2025-09-03T13:11:42.154Z</time>
      </trkpt>
      <trkpt lat="43.250799" lon="-4.744820">
        <ele>1021.235586</ele>
        <time>2025-09-03T13:12:26.066Z</time>
      </trkpt>
      <trkpt lat="43.250494" lon="-4.744841">
        <ele>1020.221728</ele>
        <time>2025-09-03T13:13:07.916Z</time>
      </trkpt>
      <trkpt lat="43.250335" lon="-4.744815">
        <ele>1019.690125</ele>
        <time>2025-09-03T13:13:29.019Z</time>
      </trkpt>
      <trkpt lat="43.250146" lon="-4.744728">
        <ele>1019.028325</ele>
        <time>2025-09-03T13:13:54.229Z</time>
      </trkpt>
      <trkpt lat="43.249764" lon="-4.744613">
        <ele>1022.460928</ele>
        <time>2025-09-03T13:14:48.096Z</time>
      </trkpt>
      <trkpt lat="43.249615" lon="-4.744525">
        <ele>1024.317421</ele>
        <time>2025-09-03T13:15:12.756Z</time>
      </trkpt>
      <trkpt lat="43.249415" lon="-4.744348">
        <ele>1027.040918</ele>
        <time>2025-09-03T13:15:51.351Z</time>
      </trkpt>
      <trkpt lat="43.249271" lon="-4.744069">
        <ele>1029.891613</ele>
        <time>2025-09-03T13:16:36.367Z</time>
      </trkpt>
      <trkpt lat="43.249103" lon="-4.743961">
        <ele>1032.014828</ele>
        <time>2025-09-03T13:17:14.383Z</time>
      </trkpt>
      <trkpt lat="43.248872" lon="-4.743618">
        <ele>1035.909333</ele>
        <time>2025-09-03T13:18:30.888Z</time>
      </trkpt>
      <trkpt lat="43.248819" lon="-4.743565">
        <ele>1036.659808</ele>
        <time>2025-09-03T13:18:46.522Z</time>
      </trkpt>
      <trkpt lat="43.248700" lon="-4.743446">
        <ele>1038.344840</ele>
        <time>2025-09-03T13:19:22.240Z</time>
      </trkpt>
      <trkpt lat="43.248286" lon="-4.743462">
        <ele>1044.941712</ele>
        <time>2025-09-03T13:21:04.220Z</time>
      </trkpt>
      <trkpt lat="43.248173" lon="-4.743393">
        <ele>1047.066517</ele>
        <time>2025-09-03T13:21:34.298Z</time>
      </trkpt>
      <trkpt lat="43.247924" lon="-4.743167">
        <ele>1052.194931</ele>
        <time>2025-09-03T13:22:45.088Z</time>
      </trkpt>
      <trkpt lat="43.247641" lon="-4.742822">
        <ele>1058.697362</ele>
        <time>2025-09-03T13:24:11.879Z</time>
      </trkpt>
      <trkpt lat="43.247423" lon="-4.742613">
        <ele>1063.265650</ele>
        <time>2025-09-03T13:25:09.174Z</time>
      </trkpt>
      <trkpt lat="43.247241" lon="-4.742315">
        <ele>1068.132438</ele>
        <time>2025-09-03T13:26:06.388Z</time>
      </trkpt>
      <trkpt lat="43.247219" lon="-4.742138">
        <ele>1070.352404</ele>
        <time>2025-09-03T13:26:32.038Z</time>
      </trkpt>
      <trkpt lat="43.247092" lon="-4.741907">
        <ele>1072.962098</ele>
        <time>2025-09-03T13:27:12.162Z</time>
      </trkpt>
      <trkpt lat="43.246678" lon="-4.741365">
        <ele>1080.043916</ele>
        <time>2025-09-03T13:28:55.268Z</time>
      </trkpt>
      <trkpt lat="43.246127" lon="-4.740899">
        <ele>1088.055384</ele>
        <time>2025-09-03T13:30:50.994Z</time>
      </trkpt>
      <trkpt lat="43.246067" lon="-4.740802">
        <ele>1089.202886</ele>
        <time>2025-09-03T13:31:07.546Z</time>
      </trkpt>
      <trkpt lat="43.245785" lon="-4.740507">
        <ele>1093.470808</ele>
        <time>2025-09-03T13:32:09.841Z</time>
      </trkpt>
      <trkpt lat="43.245275" lon="-4.740164">
        <ele>1099.685495</ele>
        <time>2025-09-03T13:33:47.473Z</time>
      </trkpt>
      <trkpt lat="43.244794" lon="-4.739772">
        <ele>1105.806719</ele>
        <time>2025-09-03T13:35:21.723Z</time>
      </trkpt>
      <trkpt lat="43.244461" lon="-4.739380">
        <ele>1110.607031</ele>
        <time>2025-09-03T13:36:35.695Z</time>
      </trkpt>
      <trkpt lat="43.244220" lon="-4.739171">
        <ele>1113.966515</ele>
        <time>2025-09-03T13:37:23.877Z</time>
      </trkpt>
      <trkpt lat="43.243949" lon="-4.738811">
        <ele>1118.755714</ele>
        <time>2025-09-03T13:38:29.074Z</time>
      </trkpt>
      <trkpt lat="43.243388" lon="-4.738275">
        <ele>1127.436018</ele>
        <time>2025-09-03T13:40:35.367Z</time>
      </trkpt>
      <trkpt lat="43.243220" lon="-4.738130">
        <ele>1129.956242</ele>
        <time>2025-09-03T13:41:14.325Z</time>
      </trkpt>
      <trkpt lat="43.242806" lon="-4.737940">
        <ele>1135.493878</ele>
        <time>2025-09-03T13:42:41.211Z</time>
      </trkpt>
      <trkpt lat="43.242303" lon="-4.737565">
        <ele>1142.658748</ele>
        <time>2025-09-03T13:44:36.200Z</time>
      </trkpt>
      <trkpt lat="43.242059" lon="-4.737117">
        <ele>1147.759375</ele>
        <time>2025-09-03T13:45:55.668Z</time>
      </trkpt>
      <trkpt lat="43.241965" lon="-4.737050">
        <ele>1149.085168</ele>
        <time>2025-09-03T13:46:15.450Z</time>
      </trkpt>
      <trkpt lat="43.241758" lon="-4.736698">
        <ele>1153.210237</ele>
        <time>2025-09-03T13:47:14.003Z</time>
      </trkpt>
      <trkpt lat="43.241718" lon="-4.736666">
        <ele>1153.789755</ele>
        <time>2025-09-03T13:47:21.983Z</time>
      </trkpt>
      <trkpt lat="43.241592" lon="-4.736693">
        <ele>1155.386051</ele>
        <time>2025-09-03T13:47:43.376Z</time>
      </trkpt>
      <trkpt lat="43.241513" lon="-4.736677">
        <ele>1156.385633</ele>
        <time>2025-09-03T13:47:56.690Z</time>
      </trkpt>
      <trkpt lat="43.241405" lon="-4.736478">
        <ele>1158.115100</ele>
        <time>2025-09-03T13:48:26.201Z</time>
      </trkpt>
      <trkpt lat="43.241263" lon="-4.736365">
        <ele>1159.136407</ele>
        <time>2025-09-03T13:48:52.455Z</time>
      </trkpt>
      <trkpt lat="43.241174" lon="-4.736182">
        <ele>1160.133790</ele>
        <time>2025-09-03T13:49:17.813Z</time>
      </trkpt>
      <trkpt lat="43.240985" lon="-4.735943">
        <ele>1161.732756</ele>
        <time>2025-09-03T13:49:57.500Z</time>
      </trkpt>
      <trkpt lat="43.240911" lon="-4.735801">
        <ele>1162.524164</ele>
        <time>2025-09-03T13:50:16.712Z</time>
      </trkpt>
      <trkpt lat="43.240958" lon="-4.735362">
        <ele>1164.535468</ele>
        <time>2025-09-03T13:51:04.621Z</time>
      </trkpt>
      <trkpt lat="43.240941" lon="-4.735140">
        <ele>1165.547309</ele>
        <time>2025-09-03T13:51:28.367Z</time>
      </trkpt>
      <trkpt lat="43.240956" lon="-4.734957">
        <ele>1166.382058</ele>
        <time>2025-09-03T13:51:47.781Z</time>
      </trkpt>
      <trkpt lat="43.240867" lon="-4.734736">
        <ele>1167.526705</ele>
        <time>2025-09-03T13:52:14.187Z</time>
      </trkpt>
      <trkpt lat="43.240865" lon="-4.734686">
        <ele>1167.753690</ele>
        <time>2025-09-03T13:52:19.336Z</time>
      </trkpt>
      <trkpt lat="43.240776" lon="-4.734542">
        <ele>1168.609696</ele>
        <time>2025-09-03T13:52:39.021Z</time>
      </trkpt>
      <trkpt lat="43.240732" lon="-4.734355">
        <ele>1169.344910</ele>
        <time>2025-09-03T13:52:59.296Z</time>
      </trkpt>
      <trkpt lat="43.240754" lon="-4.734058">
        <ele>1170.406063</ele>
        <time>2025-09-03T13:53:30.300Z</time>
      </trkpt>
      <trkpt lat="43.240656" lon="-4.733689">
        <ele>1171.802149</ele>
        <time>2025-09-03T13:54:11.149Z</time>
      </trkpt>
      <trkpt lat="43.240621" lon="-4.733203">
        <ele>1173.538097</ele>
        <time>2025-09-03T13:55:02.283Z</time>
      </trkpt>
      <trkpt lat="43.240618" lon="-4.732606">
        <ele>1175.660234</ele>
        <time>2025-09-03T13:56:05.948Z</time>
      </trkpt>
      <trkpt lat="43.240589" lon="-4.732505">
        <ele>1176.046127</ele>
        <time>2025-09-03T13:56:17.690Z</time>
      </trkpt>
      <trkpt lat="43.240477" lon="-4.732328">
        <ele>1176.879496</ele>
        <time>2025-09-03T13:56:43.251Z</time>
      </trkpt>
      <trkpt lat="43.240406" lon="-4.732154">
        <ele>1177.600706</ele>
        <time>2025-09-03T13:57:05.097Z</time>
      </trkpt>
      <trkpt lat="43.240269" lon="-4.731957">
        <ele>1178.936939</ele>
        <time>2025-09-03T13:57:35.465Z</time>
      </trkpt>
      <trkpt lat="43.240210" lon="-4.731968">
        <ele>1179.337944</ele>
        <time>2025-09-03T13:57:44.748Z</time>
      </trkpt>
      <trkpt lat="43.240081" lon="-4.731852">
        <ele>1180.376557</ele>
        <time>2025-09-03T13:58:08.674Z</time>
      </trkpt>
      <trkpt lat="43.240011" lon="-4.731837">
        <ele>1180.853707</ele>
        <time>2025-09-03T13:58:19.748Z</time>
      </trkpt>
      <trkpt lat="43.239621" lon="-4.731543">
        <ele>1183.850319</ele>
        <time>2025-09-03T13:59:30.405Z</time>
      </trkpt>
      <trkpt lat="43.239324" lon="-4.731214">
        <ele>1186.420651</ele>
        <time>2025-09-03T14:00:31.225Z</time>
      </trkpt>
      <trkpt lat="43.239238" lon="-4.731157">
        <ele>1187.063832</ele>
        <time>2025-09-03T14:00:46.432Z</time>
      </trkpt>
      <trkpt lat="43.238758" lon="-4.731019">
        <ele>1189.908001</ele>
        <time>2025-09-03T14:02:00.745Z</time>
      </trkpt>
      <trkpt lat="43.238669" lon="-4.730975">
        <ele>1190.125815</ele>
        <time>2025-09-03T14:02:14.413Z</time>
      </trkpt>
      <trkpt lat="43.238583" lon="-4.730872">
        <ele>1190.388614</ele>
        <time>2025-09-03T14:02:30.524Z</time>
      </trkpt>
      <trkpt lat="43.238477" lon="-4.730803">
        <ele>1190.658739</ele>
        <time>2025-09-03T14:02:46.789Z</time>
      </trkpt>
      <trkpt lat="43.238282" lon="-4.730770">
        <ele>1191.111139</ele>
        <time>2025-09-03T14:03:13.058Z</time>
      </trkpt>
      <trkpt lat="43.238095" lon="-4.730701">
        <ele>1191.557004</ele>
        <time>2025-09-03T14:03:38.465Z</time>
      </trkpt>
      <trkpt lat="43.237975" lon="-4.730744">
        <ele>1191.842571</ele>
        <time>2025-09-03T14:03:54.488Z</time>
      </trkpt>
      <trkpt lat="43.237903" lon="-4.731108">
        <ele>1192.475270</ele>
        <time>2025-09-03T14:04:29.797Z</time>
      </trkpt>
      <trkpt lat="43.237940" lon="-4.731414">
        <ele>1192.995593</ele>
        <time>2025-09-03T14:04:58.673Z</time>
      </trkpt>
      <trkpt lat="43.237921" lon="-4.731602">
        <ele>1193.313974</ele>
        <time>2025-09-03T14:05:16.258Z</time>
      </trkpt>
      <trkpt lat="43.237752" lon="-4.732047">
        <ele>1194.545511</ele>
        <time>2025-09-03T14:06:03.222Z</time>
      </trkpt>
      <trkpt lat="43.237739" lon="-4.732374">
        <ele>1195.716167</ele>
        <time>2025-09-03T14:06:34.846Z</time>
      </trkpt>
      <trkpt lat="43.237723" lon="-4.732424">
        <ele>1195.911382</ele>
        <time>2025-09-03T14:06:40.125Z</time>
      </trkpt>
      <trkpt lat="43.237668" lon="-4.732455">
        <ele>1196.203120</ele>
        <time>2025-09-03T14:06:48.265Z</time>
      </trkpt>
      <trkpt lat="43.237575" lon="-4.732642">
        <ele>1197.012491</ele>
        <time>2025-09-03T14:07:11.090Z</time>
      </trkpt>
      <trkpt lat="43.237491" lon="-4.733040">
        <ele>1198.493715</ele>
        <time>2025-09-03T14:07:54.792Z</time>
      </trkpt>
      <trkpt lat="43.237522" lon="-4.733421">
        <ele>1199.864136</ele>
        <time>2025-09-03T14:08:37.148Z</time>
      </trkpt>
      <trkpt lat="43.237488" lon="-4.733971">
        <ele>1201.837277</ele>
        <time>2025-09-03T14:09:40.504Z</time>
      </trkpt>
      <trkpt lat="43.237257" lon="-4.734644">
        <ele>1206.810843</ele>
        <time>2025-09-03T14:11:07.855Z</time>
      </trkpt>
      <trkpt lat="43.237215" lon="-4.734870">
        <ele>1208.681948</ele>
        <time>2025-09-03T14:11:35.796Z</time>
      </trkpt>
      <trkpt lat="43.237257" lon="-4.735217">
        <ele>1211.503852</ele>
        <time>2025-09-03T14:12:19.303Z</time>
      </trkpt>
      <trkpt lat="43.237314" lon="-4.735373">
        <ele>1212.903914</ele>
        <time>2025-09-03T14:12:41.864Z</time>
      </trkpt>
      <trkpt lat="43.237400" lon="-4.735518">
        <ele>1214.403896</ele>
        <time>2025-09-03T14:13:07.246Z</time>
      </trkpt>
      <trkpt lat="43.237817" lon="-4.736034">
        <ele>1220.586207</ele>
        <time>2025-09-03T14:14:55.016Z</time>
      </trkpt>
      <trkpt lat="43.237840" lon="-4.736113">
        <ele>1221.268698</ele>
        <time>2025-09-03T14:15:06.471Z</time>
      </trkpt>
      <trkpt lat="43.237837" lon="-4.736229">
        <ele>1222.199864</ele>
        <time>2025-09-03T14:15:21.996Z</time>
      </trkpt>
      <trkpt lat="43.237786" lon="-4.736310">
        <ele>1222.674323</ele>
        <time>2025-09-03T14:15:36.236Z</time>
      </trkpt>
      <trkpt lat="43.237701" lon="-4.736335">
        <ele>1223.034012</ele>
        <time>2025-09-03T14:15:52.011Z</time>
      </trkpt>
      <trkpt lat="43.237655" lon="-4.736300">
        <ele>1223.251633</ele>
        <time>2025-09-03T14:16:01.426Z</time>
      </trkpt>
      <trkpt lat="43.237606" lon="-4.736325">
        <ele>1223.467933</ele>
        <time>2025-09-03T14:16:10.662Z</time>
      </trkpt>
      <trkpt lat="43.237544" lon="-4.736458">
        <ele>1223.943902</ele>
        <time>2025-09-03T14:16:30.581Z</time>
      </trkpt>
      <trkpt lat="43.237498" lon="-4.736730">
        <ele>1224.785625</ele>
        <time>2025-09-03T14:17:04.766Z</time>
      </trkpt>
      <trkpt lat="43.237457" lon="-4.736792">
        <ele>1225.038032</ele>
        <time>2025-09-03T14:17:14.830Z</time>
      </trkpt>
      <trkpt lat="43.237383" lon="-4.736810">
        <ele>1225.348993</ele>
        <time>2025-09-03T14:17:27.000Z</time>
      </trkpt>
      <trkpt lat="43.237296" lon="-4.736840">
        <ele>1225.720160</ele>
        <time>2025-09-03T14:17:38.413Z</time>
      </trkpt>
      <trkpt lat="43.237213" lon="-4.736507">
        <ele>1226.781088</ele>
        <time>2025-09-03T14:18:09.481Z</time>
      </trkpt>
      <trkpt lat="43.237209" lon="-4.736822">
        <ele>1227.730777</ele>
        <time>2025-09-03T14:18:34.848Z</time>
      </trkpt>
      <trkpt lat="43.237192" lon="-4.737045">
        <ele>1228.406665</ele>
        <time>2025-09-03T14:18:51.255Z</time>
      </trkpt>
      <trkpt lat="43.237076" lon="-4.737345">
        <ele>1229.430476</ele>
        <time>2025-09-03T14:19:17.802Z</time>
      </trkpt>
      <trkpt lat="43.236797" lon="-4.737862">
        <ele>1225.501839</ele>
        <time>2025-09-03T14:20:13.093Z</time>
      </trkpt>
      <trkpt lat="43.236682" lon="-4.738077">
        <ele>1223.128068</ele>
        <time>2025-09-03T14:20:37.274Z</time>
      </trkpt>
      <trkpt lat="43.236504" lon="-4.738330">
        <ele>1219.997890</ele>
        <time>2025-09-03T14:21:10.118Z</time>
      </trkpt>
      <trkpt lat="43.236307" lon="-4.738481">
        <ele>1217.241549</ele>
        <time>2025-09-03T14:21:39.331Z</time>
      </trkpt>
      <trkpt lat="43.236094" lon="-4.738569">
        <ele>1214.524239</ele>
        <time>2025-09-03T14:22:08.314Z</time>
      </trkpt>
      <trkpt lat="43.235741" lon="-4.738629">
        <ele>1210.179068</ele>
        <time>2025-09-03T14:22:53.820Z</time>
      </trkpt>
      <trkpt lat="43.235496" lon="-4.738603">
        <ele>1207.269326</ele>
        <time>2025-09-03T14:23:25.032Z</time>
      </trkpt>
      <trkpt lat="43.235150" lon="-4.738403">
        <ele>1203.257120</ele>
        <time>2025-09-03T14:24:11.850Z</time>
      </trkpt>
      <trkpt lat="43.234716" lon="-4.738002">
        <ele>1197.666011</ele>
        <time>2025-09-03T14:25:15.181Z</time>
      </trkpt>
      <trkpt lat="43.234410" lon="-4.737932">
        <ele>1194.350689</ele>
        <time>2025-09-03T14:25:51.705Z</time>
      </trkpt>
      <trkpt lat="43.234075" lon="-4.737805">
        <ele>1190.636502</ele>
        <time>2025-09-03T14:26:32.353Z</time>
      </trkpt>
      <trkpt lat="43.233846" lon="-4.737651">
        <ele>1188.010962</ele>
        <time>2025-09-03T14:27:02.273Z</time>
      </trkpt>
      <trkpt lat="43.233662" lon="-4.737393">
        <ele>1185.559426</ele>
        <time>2025-09-03T14:27:33.540Z</time>
      </trkpt>
      <trkpt lat="43.233192" lon="-4.737155">
        <ele>1180.890366</ele>
        <time>2025-09-03T14:28:33.504Z</time>
      </trkpt>
      <trkpt lat="43.232744" lon="-4.736862">
        <ele>1176.265167</ele>
        <time>2025-09-03T14:29:32.643Z</time>
      </trkpt>
      <trkpt lat="43.232466" lon="-4.736556">
        <ele>1172.943905</ele>
        <time>2025-09-03T14:30:14.570Z</time>
      </trkpt>
      <trkpt lat="43.232083" lon="-4.736018">
        <ele>1167.230188</ele>
        <time>2025-09-03T14:31:18.632Z</time>
      </trkpt>
      <trkpt lat="43.231841" lon="-4.735597">
        <ele>1163.049378</ele>
        <time>2025-09-03T14:32:04.590Z</time>
      </trkpt>
      <trkpt lat="43.231619" lon="-4.735094">
        <ele>1158.464388</ele>
        <time>2025-09-03T14:32:56.081Z</time>
      </trkpt>
      <trkpt lat="43.231548" lon="-4.735058">
        <ele>1157.654453</ele>
        <time>2025-09-03T14:33:05.362Z</time>
      </trkpt>
      <trkpt lat="43.231500" lon="-4.735148">
        <ele>1156.784872</ele>
        <time>2025-09-03T14:33:15.378Z</time>
      </trkpt>
      <trkpt lat="43.231419" lon="-4.735551">
        <ele>1153.525545</ele>
        <time>2025-09-03T14:33:53.695Z</time>
      </trkpt>
      <trkpt lat="43.231280" lon="-4.735931">
        <ele>1150.071367</ele>
        <time>2025-09-03T14:34:33.850Z</time>
      </trkpt>
      <trkpt lat="43.231271" lon="-4.736669">
        <ele>1143.992700</ele>
        <time>2025-09-03T14:35:42.964Z</time>
      </trkpt>
      <trkpt lat="43.231243" lon="-4.737043">
        <ele>1140.896395</ele>
        <time>2025-09-03T14:36:17.131Z</time>
      </trkpt>
      <trkpt lat="43.231309" lon="-4.737605">
        <ele>1136.208294</ele>
        <time>2025-09-03T14:37:07.625Z</time>
      </trkpt>
      <trkpt lat="43.231231" lon="-4.737511">
        <ele>1135.035004</ele>
        <time>2025-09-03T14:37:19.753Z</time>
      </trkpt>
      <trkpt lat="43.231147" lon="-4.737507">
        <ele>1134.084955</ele>
        <time>2025-09-03T14:37:29.450Z</time>
      </trkpt>
      <trkpt lat="43.231105" lon="-4.737569">
        <ele>1133.387752</ele>
        <time>2025-09-03T14:37:36.519Z</time>
      </trkpt>
      <trkpt lat="43.231092" lon="-4.737673">
        <ele>1132.518742</ele>
        <time>2025-09-03T14:37:45.168Z</time>
      </trkpt>
      <trkpt lat="43.231098" lon="-4.738617">
        <ele>1129.644165</ele>
        <time>2025-09-03T14:38:58.034Z</time>
      </trkpt>
      <trkpt lat="43.231017" lon="-4.739546">
        <ele>1126.902832</ele>
        <time>2025-09-03T14:40:09.224Z</time>
      </trkpt>
      <trkpt lat="43.231030" lon="-4.739961">
        <ele>1125.685783</ele>
        <time>2025-09-03T14:40:41.736Z</time>
      </trkpt>
      <trkpt lat="43.231055" lon="-4.740153">
        <ele>1125.111136</ele>
        <time>2025-09-03T14:40:57.147Z</time>
      </trkpt>
      <trkpt lat="43.230964" lon="-4.741380">
        <ele>1117.489474</ele>
        <time>2025-09-03T14:42:40.223Z</time>
      </trkpt>
      <trkpt lat="43.230942" lon="-4.741954">
        <ele>1113.937423</ele>
        <time>2025-09-03T14:43:30.603Z</time>
      </trkpt>
      <trkpt lat="43.231017" lon="-4.742300">
        <ele>1111.706630</ele>
        <time>2025-09-03T14:44:02.273Z</time>
      </trkpt>
      <trkpt lat="43.231260" lon="-4.743156">
        <ele>1105.154395</ele>
        <time>2025-09-03T14:45:23.762Z</time>
      </trkpt>
      <trkpt lat="43.231327" lon="-4.743506">
        <ele>1102.407455</ele>
        <time>2025-09-03T14:45:56.100Z</time>
      </trkpt>
      <trkpt lat="43.231399" lon="-4.744061">
        <ele>1098.128319</ele>
        <time>2025-09-03T14:46:46.055Z</time>
      </trkpt>
      <trkpt lat="43.231441" lon="-4.744886">
        <ele>1091.850673</ele>
        <time>2025-09-03T14:47:57.617Z</time>
      </trkpt>
      <trkpt lat="43.231408" lon="-4.745078">
        <ele>1090.368111</ele>
        <time>2025-09-03T14:48:14.489Z</time>
      </trkpt>
      <trkpt lat="43.231319" lon="-4.745360">
        <ele>1088.080384</ele>
        <time>2025-09-03T14:48:40.673Z</time>
      </trkpt>
      <trkpt lat="43.230640" lon="-4.746972">
        <ele>1074.219354</ele>
        <time>2025-09-03T14:51:23.492Z</time>
      </trkpt>
      <trkpt lat="43.230520" lon="-4.748184">
        <ele>1063.003577</ele>
        <time>2025-09-03T14:53:13.346Z</time>
      </trkpt>
      <trkpt lat="43.230529" lon="-4.748265">
        <ele>1062.224951</ele>
        <time>2025-09-03T14:53:21.149Z</time>
      </trkpt>
      <trkpt lat="43.230635" lon="-4.748313">
        <ele>1060.769145</ele>
        <time>2025-09-03T14:53:35.581Z</time>
      </trkpt>
      <trkpt lat="43.230714" lon="-4.748268">
        <ele>1059.653575</ele>
        <time>2025-09-03T14:53:46.505Z</time>
      </trkpt>
      <trkpt lat="43.230815" lon="-4.748115">
        <ele>1057.691651</ele>
        <time>2025-09-03T14:54:05.922Z</time>
      </trkpt>
      <trkpt lat="43.230987" lon="-4.747725">
        <ele>1053.359519</ele>
        <time>2025-09-03T14:54:48.488Z</time>
      </trkpt>
      <trkpt lat="43.231080" lon="-4.747632">
        <ele>1051.858763</ele>
        <time>2025-09-03T14:55:03.046Z</time>
      </trkpt>
      <trkpt lat="43.231306" lon="-4.747501">
        <ele>1048.897026</ele>
        <time>2025-09-03T14:55:34.013Z</time>
      </trkpt>
      <trkpt lat="43.231648" lon="-4.747515">
        <ele>1046.125248</ele>
        <time>2025-09-03T14:56:16.120Z</time>
      </trkpt>
      <trkpt lat="43.231946" lon="-4.747577">
        <ele>1043.683568</ele>
        <time>2025-09-03T14:56:53.596Z</time>
      </trkpt>
      <trkpt lat="43.232048" lon="-4.747447">
        <ele>1042.555951</ele>
        <time>2025-09-03T14:57:10.729Z</time>
      </trkpt>
      <trkpt lat="43.232100" lon="-4.747378">
        <ele>1041.970022</ele>
        <time>2025-09-03T14:57:19.482Z</time>
      </trkpt>
      <trkpt lat="43.232200" lon="-4.747319">
        <ele>1041.088245</ele>
        <time>2025-09-03T14:57:32.644Z</time>
      </trkpt>
      <trkpt lat="43.232295" lon="-4.747224">
        <ele>1040.136048</ele>
        <time>2025-09-03T14:57:46.404Z</time>
      </trkpt>
      <trkpt lat="43.232381" lon="-4.747124">
        <ele>1039.222955</ele>
        <time>2025-09-03T14:57:59.047Z</time>
      </trkpt>
      <trkpt lat="43.232592" lon="-4.746889">
        <ele>1037.021684</ele>
        <time>2025-09-03T14:58:28.613Z</time>
      </trkpt>
      <trkpt lat="43.232586" lon="-4.746815">
        <ele>1036.582223</ele>
        <time>2025-09-03T14:58:34.354Z</time>
      </trkpt>
      <trkpt lat="43.233238" lon="-4.746488">
        <ele>1034.716293</ele>
        <time>2025-09-03T14:59:44.806Z</time>
      </trkpt>
      <trkpt lat="43.233488" lon="-4.746444">
        <ele>1034.716293</ele>
        <time>2025-09-03T15:00:13.032Z</time>
      </trkpt>
      <trkpt lat="43.233857" lon="-4.746472">
        <ele>1034.716293</ele>
        <time>2025-09-03T15:00:55.323Z</time>
      </trkpt>
      <trkpt lat="43.233878" lon="-4.746600">
        <ele>1034.716293</ele>
        <time>2025-09-03T15:01:06.101Z</time>
      </trkpt>
      <trkpt lat="43.234145" lon="-4.746766">
        <ele>1034.716293</ele>
        <time>2025-09-03T15:01:39.157Z</time>
      </trkpt>
    </trkseg>
  </trk>
</gpx>